Zutphen, Netherlands
Current Conditions -  °F | °C
As of 6:55 PM on Saturday 22 Nov 2014 (Local Time) from EHDL Reporting Station
Haze Haze  
Wind Chill: 46°   Ceiling: 17000
Heat Index: 48°   Visibility: 6mi
Dew Point: 46°   Wind: 6mph
Humidity: 93%   Direction: 140°SE
Pressure: 30.03"   Gusts: NA
Location:  52.14°N, 6.2°E
Report Text: EHDL 221755Z AUTO 14005KT 9000 BR OVC170 09/08 Q1017 BLU
Loading
Personal Weather Stations






























Interactive Weather Map New forecast layout! Learn more

10-Day Weather Forecast

Advertisements
Track Severe Weather on mobile